sensor_id;sensor_type;location;lat;lon;timestamp;temperature;humidity
48994;DHT22;34804;49.214;12.276;2022-09-17T00:00:46;8.90;91.60
48994;DHT22;34804;49.214;12.276;2022-09-17T00:03:13;8.90;91.60
48994;DHT22;34804;49.214;12.276;2022-09-17T00:05:41;8.90;91.80
48994;DHT22;34804;49.214;12.276;2022-09-17T00:08:11;8.90;92.00
48994;DHT22;34804;49.214;12.276;2022-09-17T00:10:41;8.80;92.00
48994;DHT22;34804;49.214;12.276;2022-09-17T00:13:09;8.80;92.20
48994;DHT22;34804;49.214;12.276;2022-09-17T00:15:44;8.80;92.30
48994;DHT22;34804;49.214;12.276;2022-09-17T00:18:12;8.70;92.30
48994;DHT22;34804;49.214;12.276;2022-09-17T00:20:40;8.70;92.40
48994;DHT22;34804;49.214;12.276;2022-09-17T00:23:08;8.70;92.50
48994;DHT22;34804;49.214;12.276;2022-09-17T00:25:43;8.60;92.50
48994;DHT22;34804;49.214;12.276;2022-09-17T00:28:11;8.60;92.50
48994;DHT22;34804;49.214;12.276;2022-09-17T00:30:40;8.50;92.40
48994;DHT22;34804;49.214;12.276;2022-09-17T00:33:09;8.40;92.50
48994;DHT22;34804;49.214;12.276;2022-09-17T00:35:36;8.30;92.70
48994;DHT22;34804;49.214;12.276;2022-09-17T00:38:03;8.20;92.70
48994;DHT22;34804;49.214;12.276;2022-09-17T00:40:30;8.20;92.90
48994;DHT22;34804;49.214;12.276;2022-09-17T00:42:57;8.10;92.80
48994;DHT22;34804;49.214;12.276;2022-09-17T00:45:24;8.10;93.20
48994;DHT22;34804;49.214;12.276;2022-09-17T00:47:57;8.10;93.20
48994;DHT22;34804;49.214;12.276;2022-09-17T00:53:15;8.10;93.40
48994;DHT22;34804;49.214;12.276;2022-09-17T00:55:48;8.10;93.30
48994;DHT22;34804;49.214;12.276;2022-09-17T00:58:20;8.10;93.30
48994;DHT22;34804;49.214;12.276;2022-09-17T01:00:48;8.10;93.50
48994;DHT22;34804;49.214;12.276;2022-09-17T01:03:15;8.20;93.20
48994;DHT22;34804;49.214;12.276;2022-09-17T01:11:49;8.60;92.40
48994;DHT22;34804;49.214;12.276;2022-09-17T01:22:32;8.60;91.70
48994;DHT22;34804;49.214;12.276;2022-09-17T01:28:09;8.70;91.90
48994;DHT22;34804;49.214;12.276;2022-09-17T01:30:54;8.70;91.60
48994;DHT22;34804;49.214;12.276;2022-09-17T01:33:43;8.70;91.50
48994;DHT22;34804;49.214;12.276;2022-09-17T01:36:45;8.70;91.80
48994;DHT22;34804;49.214;12.276;2022-09-17T01:45:05;8.50;91.20
48994;DHT22;34804;49.214;12.276;2022-09-17T01:47:35;8.50;91.40
48994;DHT22;34804;49.214;12.276;2022-09-17T01:50:16;8.50;91.30
48994;DHT22;34804;49.214;12.276;2022-09-17T01:52:46;8.40;91.30
48994;DHT22;34804;49.214;12.276;2022-09-17T01:55:15;8.40;91.40
48994;DHT22;34804;49.214;12.276;2022-09-17T01:57:55;8.30;91.50
48994;DHT22;34804;49.214;12.276;2022-09-17T02:00:23;8.40;91.70
48994;DHT22;34804;49.214;12.276;2022-09-17T02:03:03;8.40;91.50
48994;DHT22;34804;49.214;12.276;2022-09-17T02:05:39;8.40;91.50
48994;DHT22;34804;49.214;12.276;2022-09-17T02:08:14;8.40;91.50
48994;DHT22;34804;49.214;12.276;2022-09-17T02:10:49;8.40;91.40
48994;DHT22;34804;49.214;12.276;2022-09-17T02:13:27;8.40;91.40
48994;DHT22;34804;49.214;12.276;2022-09-17T02:16:11;8.40;91.40
48994;DHT22;34804;49.214;12.276;2022-09-17T02:18:48;8.40;91.40
48994;DHT22;34804;49.214;12.276;2022-09-17T02:21:26;8.40;91.20
48994;DHT22;34804;49.214;12.276;2022-09-17T02:26:50;8.30;91.40
48994;DHT22;34804;49.214;12.276;2022-09-17T02:29:30;8.30;91.50
48994;DHT22;34804;49.214;12.276;2022-09-17T02:31:59;8.30;91.40
48994;DHT22;34804;49.214;12.276;2022-09-17T02:34:27;8.30;91.40
48994;DHT22;34804;49.214;12.276;2022-09-17T02:36:56;8.30;91.40
48994;DHT22;34804;49.214;12.276;2022-09-17T02:39:25;8.30;91.40
48994;DHT22;34804;49.214;12.276;2022-09-17T02:52:56;8.60;91.70
48994;DHT22;34804;49.214;12.276;2022-09-17T02:57:57;8.70;91.40
48994;DHT22;34804;49.214;12.276;2022-09-17T03:00:26;8.70;91.10
48994;DHT22;34804;49.214;12.276;2022-09-17T03:05:25;8.80;90.80
48994;DHT22;34804;49.214;12.276;2022-09-17T03:07:57;8.80;90.70
48994;DHT22;34804;49.214;12.276;2022-09-17T03:10:25;8.80;90.20
48994;DHT22;34804;49.214;12.276;2022-09-17T03:12:54;8.80;90.20
48994;DHT22;34804;49.214;12.276;2022-09-17T03:15:21;8.80;90.30
48994;DHT22;34804;49.214;12.276;2022-09-17T03:17:48;8.70;90.40
48994;DHT22;34804;49.214;12.276;2022-09-17T03:20:19;8.80;90.30
48994;DHT22;34804;49.214;12.276;2022-09-17T03:22:45;8.80;90.50
48994;DHT22;34804;49.214;12.276;2022-09-17T03:25:12;8.80;90.10
48994;DHT22;34804;49.214;12.276;2022-09-17T03:27:39;8.80;90.00
48994;DHT22;34804;49.214;12.276;2022-09-17T03:30:06;8.80;89.90
48994;DHT22;34804;49.214;12.276;2022-09-17T03:32:33;8.80;90.20
48994;DHT22;34804;49.214;12.276;2022-09-17T03:35:00;8.80;90.10
48994;DHT22;34804;49.214;12.276;2022-09-17T03:37:27;8.90;90.40
48994;DHT22;34804;49.214;12.276;2022-09-17T03:39:58;8.80;89.60
48994;DHT22;34804;49.214;12.276;2022-09-17T03:42:25;8.80;89.80
48994;DHT22;34804;49.214;12.276;2022-09-17T03:44:52;8.90;89.90
48994;DHT22;34804;49.214;12.276;2022-09-17T03:47:19;8.90;89.90
48994;DHT22;34804;49.214;12.276;2022-09-17T03:49:45;8.90;89.90
48994;DHT22;34804;49.214;12.276;2022-09-17T03:52:12;8.90;89.90
48994;DHT22;34804;49.214;12.276;2022-09-17T03:54:39;8.90;89.70
48994;DHT22;34804;49.214;12.276;2022-09-17T03:57:06;8.90;89.80
48994;DHT22;34804;49.214;12.276;2022-09-17T03:59:32;8.90;90.00
48994;DHT22;34804;49.214;12.276;2022-09-17T04:01:59;8.90;89.20
48994;DHT22;34804;49.214;12.276;2022-09-17T04:04:26;8.90;89.50
48994;DHT22;34804;49.214;12.276;2022-09-17T04:06:52;8.90;89.30
48994;DHT22;34804;49.214;12.276;2022-09-17T04:09:20;8.90;88.90
48994;DHT22;34804;49.214;12.276;2022-09-17T04:11:47;8.90;89.50
48994;DHT22;34804;49.214;12.276;2022-09-17T04:14:13;8.90;89.50
48994;DHT22;34804;49.214;12.276;2022-09-17T04:16:41;8.90;88.80
48994;DHT22;34804;49.214;12.276;2022-09-17T04:19:08;8.80;87.90
48994;DHT22;34804;49.214;12.276;2022-09-17T04:21:35;8.90;88.90
48994;DHT22;34804;49.214;12.276;2022-09-17T04:24:02;8.90;88.70
48994;DHT22;34804;49.214;12.276;2022-09-17T04:26:28;8.90;89.00
48994;DHT22;34804;49.214;12.276;2022-09-17T04:28:55;8.90;89.40
48994;DHT22;34804;49.214;12.276;2022-09-17T04:31:22;8.90;89.70
48994;DHT22;34804;49.214;12.276;2022-09-17T04:33:50;8.90;89.10
48994;DHT22;34804;49.214;12.276;2022-09-17T04:36:17;8.90;88.80
48994;DHT22;34804;49.214;12.276;2022-09-17T04:38:47;8.90;88.60
48994;DHT22;34804;49.214;12.276;2022-09-17T04:41:14;9.00;89.00
48994;DHT22;34804;49.214;12.276;2022-09-17T04:43:41;8.90;89.30
48994;DHT22;34804;49.214;12.276;2022-09-17T04:46:07;8.90;89.30
48994;DHT22;34804;49.214;12.276;2022-09-17T04:48:34;8.90;89.30
48994;DHT22;34804;49.214;12.276;2022-09-17T04:51:01;8.90;89.10
48994;DHT22;34804;49.214;12.276;2022-09-17T04:53:28;8.90;89.20
48994;DHT22;34804;49.214;12.276;2022-09-17T04:55:54;9.00;89.60
48994;DHT22;34804;49.214;12.276;2022-09-17T04:58:21;9.00;90.10
48994;DHT22;34804;49.214;12.276;2022-09-17T05:00:48;9.00;89.70
48994;DHT22;34804;49.214;12.276;2022-09-17T05:03:15;9.00;88.80
48994;DHT22;34804;49.214;12.276;2022-09-17T05:05:42;8.90;88.70
48994;DHT22;34804;49.214;12.276;2022-09-17T05:08:08;8.90;89.10
48994;DHT22;34804;49.214;12.276;2022-09-17T05:10:35;8.90;88.50
48994;DHT22;34804;49.214;12.276;2022-09-17T05:13:02;8.90;88.70
48994;DHT22;34804;49.214;12.276;2022-09-17T05:15:29;8.90;89.00
48994;DHT22;34804;49.214;12.276;2022-09-17T05:17:55;8.90;88.70
48994;DHT22;34804;49.214;12.276;2022-09-17T05:20:22;8.90;88.50
48994;DHT22;34804;49.214;12.276;2022-09-17T05:22:50;8.90;88.30
48994;DHT22;34804;49.214;12.276;2022-09-17T05:25:20;8.90;88.80
48994;DHT22;34804;49.214;12.276;2022-09-17T05:27:51;8.90;88.50
48994;DHT22;34804;49.214;12.276;2022-09-17T05:30:18;8.90;88.50
48994;DHT22;34804;49.214;12.276;2022-09-17T05:32:45;8.90;88.90
48994;DHT22;34804;49.214;12.276;2022-09-17T05:35:12;8.90;89.20
48994;DHT22;34804;49.214;12.276;2022-09-17T05:37:39;9.00;88.90
48994;DHT22;34804;49.214;12.276;2022-09-17T05:40:07;9.00;88.80
48994;DHT22;34804;49.214;12.276;2022-09-17T05:42:34;9.00;88.40
48994;DHT22;34804;49.214;12.276;2022-09-17T05:45:01;9.00;89.30
48994;DHT22;34804;49.214;12.276;2022-09-17T05:47:29;9.00;89.00
48994;DHT22;34804;49.214;12.276;2022-09-17T05:49:55;9.00;88.90
48994;DHT22;34804;49.214;12.276;2022-09-17T05:52:26;8.90;89.10
48994;DHT22;34804;49.214;12.276;2022-09-17T05:54:54;8.90;89.10
48994;DHT22;34804;49.214;12.276;2022-09-17T05:57:21;8.90;89.10
48994;DHT22;34804;49.214;12.276;2022-09-17T05:59:48;8.80;88.80
48994;DHT22;34804;49.214;12.276;2022-09-17T06:02:15;8.80;88.70
48994;DHT22;34804;49.214;12.276;2022-09-17T06:04:42;8.90;88.40
48994;DHT22;34804;49.214;12.276;2022-09-17T06:07:09;8.90;88.70
48994;DHT22;34804;49.214;12.276;2022-09-17T06:09:36;8.80;87.90
48994;DHT22;34804;49.214;12.276;2022-09-17T06:12:04;8.90;88.90
48994;DHT22;34804;49.214;12.276;2022-09-17T06:14:31;8.90;89.10
48994;DHT22;34804;49.214;12.276;2022-09-17T06:16:59;8.80;88.20
48994;DHT22;34804;49.214;12.276;2022-09-17T06:19:26;8.80;88.50
48994;DHT22;34804;49.214;12.276;2022-09-17T06:21:54;8.80;87.90
48994;DHT22;34804;49.214;12.276;2022-09-17T06:24:21;8.80;88.30
48994;DHT22;34804;49.214;12.276;2022-09-17T06:26:48;8.80;88.40
48994;DHT22;34804;49.214;12.276;2022-09-17T06:29:16;8.80;89.20
48994;DHT22;34804;49.214;12.276;2022-09-17T06:31:43;8.90;89.30
48994;DHT22;34804;49.214;12.276;2022-09-17T06:34:11;8.90;88.80
48994;DHT22;34804;49.214;12.276;2022-09-17T06:36:38;9.00;88.90
48994;DHT22;34804;49.214;12.276;2022-09-17T06:39:06;9.00;88.50
48994;DHT22;34804;49.214;12.276;2022-09-17T06:41:32;8.90;89.20
48994;DHT22;34804;49.214;12.276;2022-09-17T06:43:59;8.90;89.80
48994;DHT22;34804;49.214;12.276;2022-09-17T06:46:28;8.80;90.30
48994;DHT22;34804;49.214;12.276;2022-09-17T06:48:56;8.80;90.50
48994;DHT22;34804;49.214;12.276;2022-09-17T06:51:23;8.80;90.50
48994;DHT22;34804;49.214;12.276;2022-09-17T06:53:50;8.80;91.20
48994;DHT22;34804;49.214;12.276;2022-09-17T06:56:17;8.80;91.60
48994;DHT22;34804;49.214;12.276;2022-09-17T06:58:43;8.70;91.80
48994;DHT22;34804;49.214;12.276;2022-09-17T07:01:11;8.80;92.00
48994;DHT22;34804;49.214;12.276;2022-09-17T07:03:40;8.70;91.70
48994;DHT22;34804;49.214;12.276;2022-09-17T07:06:09;8.70;91.90
48994;DHT22;34804;49.214;12.276;2022-09-17T07:08:37;8.70;91.80
48994;DHT22;34804;49.214;12.276;2022-09-17T07:11:04;8.70;91.60
48994;DHT22;34804;49.214;12.276;2022-09-17T07:13:31;8.70;92.10
48994;DHT22;34804;49.214;12.276;2022-09-17T07:15:59;8.70;91.70
48994;DHT22;34804;49.214;12.276;2022-09-17T07:18:27;8.80;91.80
48994;DHT22;34804;49.214;12.276;2022-09-17T07:21:01;8.70;91.80
48994;DHT22;34804;49.214;12.276;2022-09-17T07:23:33;8.70;91.80
48994;DHT22;34804;49.214;12.276;2022-09-17T07:26:04;8.80;92.40
48994;DHT22;34804;49.214;12.276;2022-09-17T07:28:31;8.90;92.30
48994;DHT22;34804;49.214;12.276;2022-09-17T07:31:02;8.90;91.80
48994;DHT22;34804;49.214;12.276;2022-09-17T07:33:29;9.00;92.30
48994;DHT22;34804;49.214;12.276;2022-09-17T07:36:01;9.10;92.20
48994;DHT22;34804;49.214;12.276;2022-09-17T07:38:29;9.10;91.60
48994;DHT22;34804;49.214;12.276;2022-09-17T07:43:32;9.30;91.80
48994;DHT22;34804;49.214;12.276;2022-09-17T07:46:01;9.30;91.50
48994;DHT22;34804;49.214;12.276;2022-09-17T07:48:29;9.30;92.00
48994;DHT22;34804;49.214;12.276;2022-09-17T07:50:55;9.20;90.90
48994;DHT22;34804;49.214;12.276;2022-09-17T07:53:23;9.20;92.00
48994;DHT22;34804;49.214;12.276;2022-09-17T07:55:54;9.20;91.70
48994;DHT22;34804;49.214;12.276;2022-09-17T07:58:23;9.20;91.80
48994;DHT22;34804;49.214;12.276;2022-09-17T08:00:50;9.20;91.60
48994;DHT22;34804;49.214;12.276;2022-09-17T08:03:16;9.10;91.70
48994;DHT22;34804;49.214;12.276;2022-09-17T08:05:43;9.10;91.70
48994;DHT22;34804;49.214;12.276;2022-09-17T08:08:10;9.00;91.50
48994;DHT22;34804;49.214;12.276;2022-09-17T08:10:37;9.10;91.60
48994;DHT22;34804;49.214;12.276;2022-09-17T08:13:04;9.10;92.00
48994;DHT22;34804;49.214;12.276;2022-09-17T08:15:30;9.10;91.60
48994;DHT22;34804;49.214;12.276;2022-09-17T08:17:57;9.10;92.20
48994;DHT22;34804;49.214;12.276;2022-09-17T08:20:25;9.00;92.60
48994;DHT22;34804;49.214;12.276;2022-09-17T08:22:59;8.80;92.20
48994;DHT22;34804;49.214;12.276;2022-09-17T08:25:26;8.80;92.70
48994;DHT22;34804;49.214;12.276;2022-09-17T08:27:57;8.70;92.60
48994;DHT22;34804;49.214;12.276;2022-09-17T08:30:24;8.80;92.40
48994;DHT22;34804;49.214;12.276;2022-09-17T08:32:54;8.80;92.60
48994;DHT22;34804;49.214;12.276;2022-09-17T08:35:21;8.70;92.30
48994;DHT22;34804;49.214;12.276;2022-09-17T08:37:53;8.80;92.40
48994;DHT22;34804;49.214;12.276;2022-09-17T08:40:21;8.70;92.50
48994;DHT22;34804;49.214;12.276;2022-09-17T08:42:58;8.80;92.40
48994;DHT22;34804;49.214;12.276;2022-09-17T08:45:28;8.80;92.50
48994;DHT22;34804;49.214;12.276;2022-09-17T08:48:02;8.80;92.60
48994;DHT22;34804;49.214;12.276;2022-09-17T08:50:34;8.90;92.00
48994;DHT22;34804;49.214;12.276;2022-09-17T08:53:44;8.90;92.50
48994;DHT22;34804;49.214;12.276;2022-09-17T08:56:18;9.10;93.10
48994;DHT22;34804;49.214;12.276;2022-09-17T09:02:01;9.30;93.10
48994;DHT22;34804;49.214;12.276;2022-09-17T09:07:10;9.50;92.30
48994;DHT22;34804;49.214;12.276;2022-09-17T09:12:24;9.40;92.60
48994;DHT22;34804;49.214;12.276;2022-09-17T09:14:59;9.50;93.00
48994;DHT22;34804;49.214;12.276;2022-09-17T09:17:33;9.50;92.70
48994;DHT22;34804;49.214;12.276;2022-09-17T09:20:01;9.60;93.00
48994;DHT22;34804;49.214;12.276;2022-09-17T09:22:42;9.60;92.60
48994;DHT22;34804;49.214;12.276;2022-09-17T09:25:25;9.50;92.20
48994;DHT22;34804;49.214;12.276;2022-09-17T09:33:34;9.30;92.20
48994;DHT22;34804;49.214;12.276;2022-09-17T09:36:13;9.30;93.20
48994;DHT22;34804;49.214;12.276;2022-09-17T09:38:53;9.30;93.80
48994;DHT22;34804;49.214;12.276;2022-09-17T09:41:33;9.30;92.90
48994;DHT22;34804;49.214;12.276;2022-09-17T09:44:07;9.30;93.20
48994;DHT22;34804;49.214;12.276;2022-09-17T09:57:46;9.60;93.30
48994;DHT22;34804;49.214;12.276;2022-09-17T10:03:28;9.60;93.80
48994;DHT22;34804;49.214;12.276;2022-09-17T10:06:05;9.70;93.60
48994;DHT22;34804;49.214;12.276;2022-09-17T10:08:38;9.80;93.80
48994;DHT22;34804;49.214;12.276;2022-09-17T10:11:21;9.80;93.30
48994;DHT22;34804;49.214;12.276;2022-09-17T10:13:48;9.70;93.10
48994;DHT22;34804;49.214;12.276;2022-09-17T10:16:17;9.60;92.20
48994;DHT22;34804;49.214;12.276;2022-09-17T10:18:45;9.50;92.80
48994;DHT22;34804;49.214;12.276;2022-09-17T10:21:21;9.60;93.60
48994;DHT22;34804;49.214;12.276;2022-09-17T10:23:49;9.60;93.10
48994;DHT22;34804;49.214;12.276;2022-09-17T10:26:22;9.60;93.70
48994;DHT22;34804;49.214;12.276;2022-09-17T10:28:52;9.60;93.00
48994;DHT22;34804;49.214;12.276;2022-09-17T10:31:19;9.60;92.60
48994;DHT22;34804;49.214;12.276;2022-09-17T10:33:56;9.70;93.20
48994;DHT22;34804;49.214;12.276;2022-09-17T10:36:39;9.80;93.10
48994;DHT22;34804;49.214;12.276;2022-09-17T10:42:14;9.80;93.30
48994;DHT22;34804;49.214;12.276;2022-09-17T10:44:52;9.80;92.80
48994;DHT22;34804;49.214;12.276;2022-09-17T10:47:30;9.80;92.40
48994;DHT22;34804;49.214;12.276;2022-09-17T10:50:04;9.80;92.60
48994;DHT22;34804;49.214;12.276;2022-09-17T10:52:35;9.80;92.70
48994;DHT22;34804;49.214;12.276;2022-09-17T10:55:31;9.90;93.00
48994;DHT22;34804;49.214;12.276;2022-09-17T10:58:03;9.90;92.30
48994;DHT22;34804;49.214;12.276;2022-09-17T11:06:20;10.10;92.20
48994;DHT22;34804;49.214;12.276;2022-09-17T11:26:26;11.50;88.80
48994;DHT22;34804;49.214;12.276;2022-09-17T11:34:44;12.20;86.20
48994;DHT22;34804;49.214;12.276;2022-09-17T11:37:22;12.20;84.80
48994;DHT22;34804;49.214;12.276;2022-09-17T11:39:59;12.40;86.20
48994;DHT22;34804;49.214;12.276;2022-09-17T11:42:32;12.30;85.20
48994;DHT22;34804;49.214;12.276;2022-09-17T11:45:10;12.30;86.10
48994;DHT22;34804;49.214;12.276;2022-09-17T11:47:46;12.00;85.60
48994;DHT22;34804;49.214;12.276;2022-09-17T11:50:23;11.80;85.20
48994;DHT22;34804;49.214;12.276;2022-09-17T11:53:21;11.90;87.20
48994;DHT22;34804;49.214;12.276;2022-09-17T11:55:58;11.90;85.50
48994;DHT22;34804;49.214;12.276;2022-09-17T11:58:48;11.90;86.90
48994;DHT22;34804;49.214;12.276;2022-09-17T12:07:40;12.20;86.90
48994;DHT22;34804;49.214;12.276;2022-09-17T12:10:36;12.00;84.10
48994;DHT22;34804;49.214;12.276;2022-09-17T12:13:19;12.40;84.90
48994;DHT22;34804;49.214;12.276;2022-09-17T12:15:53;13.10;83.50
48994;DHT22;34804;49.214;12.276;2022-09-17T12:18:39;13.90;81.80
48994;DHT22;34804;49.214;12.276;2022-09-17T12:21:13;14.40;79.70
48994;DHT22;34804;49.214;12.276;2022-09-17T12:24:25;14.80;77.20
48994;DHT22;34804;49.214;12.276;2022-09-17T12:27:08;15.00;78.50
48994;DHT22;34804;49.214;12.276;2022-09-17T12:41:19;16.10;71.70
48994;DHT22;34804;49.214;12.276;2022-09-17T12:52:29;15.40;69.00
48994;DHT22;34804;49.214;12.276;2022-09-17T12:58:26;15.90;70.40
48994;DHT22;34804;49.214;12.276;2022-09-17T13:01:06;16.90;66.70
48994;DHT22;34804;49.214;12.276;2022-09-17T13:03:48;16.90;67.30
48994;DHT22;34804;49.214;12.276;2022-09-17T13:12:05;17.60;61.20
48994;DHT22;34804;49.214;12.276;2022-09-17T13:17:50;15.60;67.10
48994;DHT22;34804;49.214;12.276;2022-09-17T13:23:14;17.20;66.10
48994;DHT22;34804;49.214;12.276;2022-09-17T13:25:51;16.70;63.90
48994;DHT22;34804;49.214;12.276;2022-09-17T13:28:18;16.20;66.90
48994;DHT22;34804;49.214;12.276;2022-09-17T13:30:57;16.90;62.40
48994;DHT22;34804;49.214;12.276;2022-09-17T13:33:50;17.30;64.00
48994;DHT22;34804;49.214;12.276;2022-09-17T13:42:06;16.20;64.10
48994;DHT22;34804;49.214;12.276;2022-09-17T13:44:40;15.50;66.10
48994;DHT22;34804;49.214;12.276;2022-09-17T13:47:30;17.00;65.20
48994;DHT22;34804;49.214;12.276;2022-09-17T13:50:05;17.30;60.10
48994;DHT22;34804;49.214;12.276;2022-09-17T13:52:43;18.30;62.20
48994;DHT22;34804;49.214;12.276;2022-09-17T13:58:12;18.30;61.10
48994;DHT22;34804;49.214;12.276;2022-09-17T14:00:57;16.90;61.40
48994;DHT22;34804;49.214;12.276;2022-09-17T14:05:56;15.00;66.40
48994;DHT22;34804;49.214;12.276;2022-09-17T14:16:55;16.60;67.00
48994;DHT22;34804;49.214;12.276;2022-09-17T14:19:48;18.30;60.90
48994;DHT22;34804;49.214;12.276;2022-09-17T14:22:38;19.30;58.60
48994;DHT22;34804;49.214;12.276;2022-09-17T14:25:21;18.70;55.20
48994;DHT22;34804;49.214;12.276;2022-09-17T14:31:26;16.30;62.10
48994;DHT22;34804;49.214;12.276;2022-09-17T14:34:05;14.90;66.40
48994;DHT22;34804;49.214;12.276;2022-09-17T14:36:42;14.10;68.20
48994;DHT22;34804;49.214;12.276;2022-09-17T14:39:16;13.60;71.40
48994;DHT22;34804;49.214;12.276;2022-09-17T14:41:46;13.50;73.00
48994;DHT22;34804;49.214;12.276;2022-09-17T14:44:19;13.70;72.90
48994;DHT22;34804;49.214;12.276;2022-09-17T14:47:02;13.80;72.60
48994;DHT22;34804;49.214;12.276;2022-09-17T14:49:33;13.70;73.10
48994;DHT22;34804;49.214;12.276;2022-09-17T14:52:01;13.80;74.10
48994;DHT22;34804;49.214;12.276;2022-09-17T14:54:32;13.40;73.50
48994;DHT22;34804;49.214;12.276;2022-09-17T14:57:25;11.90;73.90
48994;DHT22;34804;49.214;12.276;2022-09-17T15:00:19;10.60;78.90
48994;DHT22;34804;49.214;12.276;2022-09-17T15:02:56;10.30;82.00
48994;DHT22;34804;49.214;12.276;2022-09-17T15:05:33;10.00;82.40
48994;DHT22;34804;49.214;12.276;2022-09-17T15:13:15;9.90;81.10
48994;DHT22;34804;49.214;12.276;2022-09-17T15:15:51;10.00;82.60
48994;DHT22;34804;49.214;12.276;2022-09-17T15:18:19;10.20;83.70
48994;DHT22;34804;49.214;12.276;2022-09-17T15:20:47;10.30;84.00
48994;DHT22;34804;49.214;12.276;2022-09-17T15:23:19;10.40;85.40
48994;DHT22;34804;49.214;12.276;2022-09-17T15:25:50;10.50;84.80
48994;DHT22;34804;49.214;12.276;2022-09-17T15:28:38;10.70;85.50
48994;DHT22;34804;49.214;12.276;2022-09-17T15:31:18;10.60;84.10
48994;DHT22;34804;49.214;12.276;2022-09-17T15:33:46;10.80;85.40
48994;DHT22;34804;49.214;12.276;2022-09-17T15:36:26;10.90;85.60
48994;DHT22;34804;49.214;12.276;2022-09-17T15:38:53;11.00;82.10
48994;DHT22;34804;49.214;12.276;2022-09-17T15:41:29;11.20;82.30
48994;DHT22;34804;49.214;12.276;2022-09-17T15:44:19;12.10;80.60
48994;DHT22;34804;49.214;12.276;2022-09-17T15:47:33;13.60;74.60
48994;DHT22;34804;49.214;12.276;2022-09-17T15:52:43;14.20;70.30
48994;DHT22;34804;49.214;12.276;2022-09-17T15:55:36;13.50;72.40
48994;DHT22;34804;49.214;12.276;2022-09-17T15:58:04;13.10;72.20
48994;DHT22;34804;49.214;12.276;2022-09-17T16:00:44;13.60;72.60
48994;DHT22;34804;49.214;12.276;2022-09-17T16:08:53;16.20;62.90
48994;DHT22;34804;49.214;12.276;2022-09-17T16:11:22;16.50;63.20
48994;DHT22;34804;49.214;12.276;2022-09-17T16:13:50;16.30;60.40
48994;DHT22;34804;49.214;12.276;2022-09-17T16:16:20;15.70;63.50
48994;DHT22;34804;49.214;12.276;2022-09-17T16:18:48;15.00;62.50
48994;DHT22;34804;49.214;12.276;2022-09-17T16:21:17;14.60;64.20
48994;DHT22;34804;49.214;12.276;2022-09-17T16:23:44;14.20;67.00
48994;DHT22;34804;49.214;12.276;2022-09-17T16:26:17;13.30;69.50
48994;DHT22;34804;49.214;12.276;2022-09-17T16:28:46;12.80;73.20
48994;DHT22;34804;49.214;12.276;2022-09-17T16:31:14;12.60;74.70
48994;DHT22;34804;49.214;12.276;2022-09-17T16:33:41;12.20;73.60
48994;DHT22;34804;49.214;12.276;2022-09-17T16:36:08;11.90;75.50
48994;DHT22;34804;49.214;12.276;2022-09-17T16:38:36;11.70;74.90
48994;DHT22;34804;49.214;12.276;2022-09-17T16:41:04;11.50;76.70
48994;DHT22;34804;49.214;12.276;2022-09-17T16:43:31;11.40;79.20
48994;DHT22;34804;49.214;12.276;2022-09-17T16:46:08;11.30;79.00
48994;DHT22;34804;49.214;12.276;2022-09-17T16:48:39;11.10;78.50
48994;DHT22;34804;49.214;12.276;2022-09-17T16:51:08;11.10;78.90
48994;DHT22;34804;49.214;12.276;2022-09-17T16:53:36;10.90;78.90
48994;DHT22;34804;49.214;12.276;2022-09-17T16:56:11;10.80;81.00
48994;DHT22;34804;49.214;12.276;2022-09-17T16:58:38;10.70;81.70
48994;DHT22;34804;49.214;12.276;2022-09-17T17:01:07;10.70;81.10
48994;DHT22;34804;49.214;12.276;2022-09-17T17:03:35;10.60;82.60
48994;DHT22;34804;49.214;12.276;2022-09-17T17:06:02;10.50;82.30
48994;DHT22;34804;49.214;12.276;2022-09-17T17:08:30;10.50;83.60
48994;DHT22;34804;49.214;12.276;2022-09-17T17:10:59;10.50;83.90
48994;DHT22;34804;49.214;12.276;2022-09-17T17:13:26;10.40;84.10
48994;DHT22;34804;49.214;12.276;2022-09-17T17:15:53;10.40;83.80
48994;DHT22;34804;49.214;12.276;2022-09-17T17:18:21;10.40;84.50
48994;DHT22;34804;49.214;12.276;2022-09-17T17:20:48;10.40;84.70
48994;DHT22;34804;49.214;12.276;2022-09-17T17:23:17;10.30;84.20
48994;DHT22;34804;49.214;12.276;2022-09-17T17:25:44;10.30;85.10
48994;DHT22;34804;49.214;12.276;2022-09-17T17:28:11;10.20;85.30
48994;DHT22;34804;49.214;12.276;2022-09-17T17:30:40;10.00;85.80
48994;DHT22;34804;49.214;12.276;2022-09-17T17:33:07;9.90;86.10
48994;DHT22;34804;49.214;12.276;2022-09-17T17:35:38;9.90;86.40
48994;DHT22;34804;49.214;12.276;2022-09-17T17:38:04;9.80;86.90
48994;DHT22;34804;49.214;12.276;2022-09-17T17:40:31;9.70;87.30
48994;DHT22;34804;49.214;12.276;2022-09-17T17:42:59;9.70;86.60
48994;DHT22;34804;49.214;12.276;2022-09-17T17:45:26;9.70;86.60
48994;DHT22;34804;49.214;12.276;2022-09-17T17:47:54;9.70;87.00
48994;DHT22;34804;49.214;12.276;2022-09-17T17:50:22;9.70;87.10
48994;DHT22;34804;49.214;12.276;2022-09-17T17:52:49;9.70;86.90
48994;DHT22;34804;49.214;12.276;2022-09-17T17:55:15;9.80;86.60
48994;DHT22;34804;49.214;12.276;2022-09-17T17:57:42;9.80;86.90
48994;DHT22;34804;49.214;12.276;2022-09-17T18:00:10;9.80;86.80
48994;DHT22;34804;49.214;12.276;2022-09-17T18:02:39;9.80;86.70
48994;DHT22;34804;49.214;12.276;2022-09-17T18:05:07;9.80;86.30
48994;DHT22;34804;49.214;12.276;2022-09-17T18:07:33;9.80;87.30
48994;DHT22;34804;49.214;12.276;2022-09-17T18:10:00;9.80;87.30
48994;DHT22;34804;49.214;12.276;2022-09-17T18:12:28;9.80;87.10
48994;DHT22;34804;49.214;12.276;2022-09-17T18:14:55;9.80;87.80
48994;DHT22;34804;49.214;12.276;2022-09-17T18:17:22;9.70;88.20
48994;DHT22;34804;49.214;12.276;2022-09-17T18:19:50;9.60;88.80
48994;DHT22;34804;49.214;12.276;2022-09-17T18:22:18;9.50;88.80
48994;DHT22;34804;49.214;12.276;2022-09-17T18:24:47;9.50;89.10
48994;DHT22;34804;49.214;12.276;2022-09-17T18:27:16;9.50;89.60
48994;DHT22;34804;49.214;12.276;2022-09-17T18:29:42;9.60;90.00
48994;DHT22;34804;49.214;12.276;2022-09-17T18:32:09;9.60;89.60
48994;DHT22;34804;49.214;12.276;2022-09-17T18:34:36;9.60;89.20
48994;DHT22;34804;49.214;12.276;2022-09-17T18:37:04;9.60;89.30
48994;DHT22;34804;49.214;12.276;2022-09-17T18:39:30;9.60;88.90
48994;DHT22;34804;49.214;12.276;2022-09-17T18:42:22;9.60;89.50
48994;DHT22;34804;49.214;12.276;2022-09-17T18:44:49;9.60;89.40
48994;DHT22;34804;49.214;12.276;2022-09-17T18:47:16;9.60;89.10
48994;DHT22;34804;49.214;12.276;2022-09-17T18:49:43;9.60;89.10
48994;DHT22;34804;49.214;12.276;2022-09-17T18:52:10;9.70;88.80
48994;DHT22;34804;49.214;12.276;2022-09-17T18:54:37;9.70;89.00
48994;DHT22;34804;49.214;12.276;2022-09-17T18:57:04;9.60;88.90
48994;DHT22;34804;49.214;12.276;2022-09-17T18:59:32;9.60;88.80